createdAt,value
2022-12-01T13:37:03.047Z,14.30
2022-12-01T13:38:30.771Z,14.23
2022-12-01T13:39:56.398Z,15.00
2022-12-01T13:41:27.741Z,15.25
2022-12-01T13:42:57.783Z,15.45
2022-12-01T13:44:27.891Z,14.60
2022-12-01T13:45:51.336Z,14.38
2022-12-01T13:47:32.465Z,12.55
2022-12-01T13:48:56.774Z,11.25
2022-12-01T13:50:56.821Z,11.15
2022-12-01T13:52:50.330Z,9.13
2022-12-01T13:54:30.776Z,9.38
2022-12-01T13:56:16.695Z,10.20
2022-12-01T13:57:41.989Z,8.55
2022-12-01T13:59:04.490Z,8.80
2022-12-01T14:00:29.881Z,8.15
2022-12-01T14:02:17.093Z,8.27
2022-12-01T14:03:41.923Z,8.40
2022-12-01T14:05:46.954Z,9.20
2022-12-01T14:07:33.427Z,9.32
2022-12-01T14:09:00.971Z,8.13
2022-12-01T14:10:31.961Z,8.82
2022-12-01T14:11:58.853Z,8.27
2022-12-01T14:13:22.627Z,7.60
2022-12-01T14:14:53.850Z,8.40
2022-12-01T14:16:17.023Z,8.93
2022-12-01T14:17:40.220Z,9.27
2022-12-01T14:19:03.327Z,7.63
2022-12-01T14:20:25.519Z,8.20
2022-12-01T14:21:52.434Z,8.10
2022-12-01T14:23:18.498Z,9.00
2022-12-01T14:24:44.691Z,8.45
2022-12-01T14:26:19.800Z,9.05
2022-12-01T14:27:44.773Z,8.18
2022-12-01T14:29:29.496Z,7.90
2022-12-01T14:31:05.333Z,8.23
2022-12-01T14:32:27.543Z,8.82
2022-12-01T14:33:54.426Z,8.35
2022-12-01T14:35:16.606Z,8.18
2022-12-01T14:36:41.940Z,8.30
2022-12-01T14:38:06.404Z,8.63
2022-12-01T14:39:32.197Z,9.48
2022-12-01T14:40:55.961Z,8.05
2022-12-01T14:42:43.503Z,8.80
2022-12-01T14:44:13.304Z,8.85
2022-12-01T14:45:41.020Z,8.23
2022-12-01T14:47:09.854Z,8.30
2022-12-01T14:48:38.892Z,7.85
2022-12-01T14:50:29.841Z,8.75
2022-12-01T14:51:57.337Z,9.50
2022-12-01T14:53:24.780Z,8.98
2022-12-01T14:54:50.703Z,9.32
2022-12-01T14:56:17.872Z,8.77
2022-12-01T14:57:42.744Z,8.95
2022-12-01T14:59:19.879Z,8.68
2022-12-01T15:00:57.073Z,9.07
2022-12-01T15:02:18.898Z,8.57
2022-12-01T15:03:45.233Z,8.85
2022-12-01T15:05:09.788Z,9.23
2022-12-01T15:06:33.548Z,7.97
2022-12-01T15:08:12.612Z,8.73
2022-12-01T15:10:02.409Z,9.07
2022-12-01T15:11:26.734Z,8.70
2022-12-01T15:12:49.633Z,8.05
2022-12-01T15:14:31.897Z,8.68
2022-12-01T15:17:31.017Z,8.18
2022-12-01T15:18:53.972Z,8.05
2022-12-01T15:20:30.571Z,8.23
2022-12-01T15:21:53.254Z,8.18
2022-12-01T15:23:17.949Z,8.68
2022-12-01T15:24:40.077Z,8.73
2022-12-01T15:26:02.681Z,8.20
2022-12-01T15:27:31.601Z,7.32
2022-12-01T15:29:15.664Z,8.32
2022-12-01T15:30:37.985Z,7.90
2022-12-01T15:32:02.526Z,8.35
2022-12-01T15:33:30.681Z,8.55
2022-12-01T15:35:01.843Z,7.00
2022-12-01T15:36:24.321Z,8.13
2022-12-01T15:37:46.750Z,7.78
2022-12-01T15:39:15.077Z,9.60
2022-12-01T15:42:25.276Z,8.70
2022-12-01T15:43:56.371Z,9.05
2022-12-01T15:45:21.195Z,8.32
2022-12-01T15:46:43.984Z,8.77
2022-12-01T15:48:19.173Z,10.15
2022-12-01T15:49:49.984Z,9.38
2022-12-01T15:51:18.563Z,8.65
2022-12-01T15:52:46.091Z,9.43
2022-12-01T15:54:17.394Z,9.27
2022-12-01T15:55:40.564Z,9.23
2022-12-01T15:57:03.630Z,8.32
2022-12-01T15:58:30.372Z,9.00
2022-12-01T15:59:56.543Z,8.95
2022-12-01T16:01:23.737Z,8.05
2022-12-01T16:02:46.954Z,8.32
2022-12-01T16:04:20.032Z,8.75
2022-12-01T16:05:45.782Z,12.77
2022-12-01T16:07:11.165Z,11.25
2022-12-01T16:08:33.227Z,12.27
2022-12-01T16:09:58.371Z,19.13
2022-12-01T16:11:22.108Z,19.15
2022-12-01T16:12:44.645Z,30.60
2022-12-01T16:14:22.904Z,32.30
2022-12-01T16:15:46.966Z,37.17
2022-12-01T16:17:11.793Z,40.72
2022-12-01T16:18:35.797Z,51.38
2022-12-01T16:20:23.128Z,62.75
2022-12-01T16:21:47.929Z,107.30
2022-12-01T16:23:12.730Z,81.78
2022-12-01T16:24:37.033Z,107.30
2022-12-01T16:26:02.031Z,104.95
2022-12-01T16:27:26.927Z,108.60
2022-12-01T16:28:51.335Z,107.60
2022-12-01T16:30:22.829Z,101.68
2022-12-01T16:32:12.440Z,99.85
2022-12-01T16:33:32.824Z,101.43
2022-12-01T16:35:27.844Z,97.13
2022-12-01T16:36:49.870Z,95.80
2022-12-01T16:39:29.316Z,22.60
2022-12-01T16:40:57.943Z,24.13
2022-12-01T16:42:21.844Z,24.45
2022-12-01T16:44:05.402Z,23.38
2022-12-01T16:45:27.055Z,25.98
2022-12-01T16:46:49.269Z,27.05
2022-12-01T16:48:11.752Z,26.63
2022-12-01T16:49:33.650Z,25.90
2022-12-01T16:50:56.200Z,25.98
2022-12-01T16:54:06.762Z,25.13
2022-12-01T16:55:37.641Z,26.25
2022-12-01T16:56:59.592Z,27.95
2022-12-01T16:58:22.149Z,28.20
2022-12-01T16:59:44.207Z,27.15
2022-12-01T17:01:06.661Z,26.02
2022-12-01T17:02:31.812Z,27.73
2022-12-01T17:03:54.110Z,27.65
2022-12-01T17:05:15.814Z,26.13
2022-12-01T17:06:43.502Z,27.63
2022-12-01T17:08:06.361Z,32.65
2022-12-01T17:09:28.469Z,46.88
2022-12-01T17:10:52.639Z,29.52
2022-12-01T17:12:14.536Z,34.83
2022-12-01T17:13:46.840Z,31.33
2022-12-01T17:15:10.335Z,27.80
2022-12-01T17:16:33.120Z,30.77
2022-12-01T17:17:55.229Z,31.63
2022-12-01T17:19:17.723Z,28.55
2022-12-01T17:20:46.295Z,30.00
2022-12-01T17:22:08.786Z,34.47
2022-12-01T17:23:38.044Z,29.73
2022-12-01T17:25:06.514Z,28.85
2022-12-01T17:26:30.466Z,28.50
2022-12-01T17:27:55.072Z,26.90
2022-12-01T17:29:20.289Z,25.35
2022-12-01T17:30:43.091Z,26.30
2022-12-01T17:32:05.533Z,28.55
2022-12-01T17:33:47.168Z,25.73
2022-12-01T17:35:11.253Z,25.30
2022-12-01T17:36:39.511Z,23.33
2022-12-01T17:38:06.360Z,25.23
2022-12-01T17:39:28.895Z,27.65
2022-12-01T17:41:12.437Z,27.52
2022-12-01T17:42:49.987Z,25.35
2022-12-01T17:44:31.369Z,27.35
2022-12-01T17:46:06.627Z,24.70
2022-12-01T17:47:36.570Z,25.38
2022-12-01T17:49:24.874Z,24.67
2022-12-01T17:53:03.126Z,23.08
2022-12-01T17:54:27.803Z,23.63
2022-12-01T17:55:49.183Z,23.17
2022-12-01T17:57:13.149Z,25.58
2022-12-01T17:58:37.410Z,24.10
2022-12-01T18:00:01.612Z,20.33
2022-12-01T18:01:31.144Z,21.43
2022-12-01T18:02:53.624Z,21.83
2022-12-01T18:04:18.917Z,23.60
2022-12-01T18:05:41.432Z,41.65
2022-12-01T18:07:03.716Z,28.33
2022-12-01T18:08:26.637Z,29.30
2022-12-01T18:09:51.460Z,46.92
2022-12-01T18:11:18.473Z,22.98
2022-12-01T18:12:40.660Z,30.65
2022-12-01T18:14:17.919Z,26.55
2022-12-01T18:15:43.582Z,21.80
2022-12-01T18:17:25.362Z,24.10
2022-12-01T18:18:59.585Z,21.70
2022-12-01T18:20:58.132Z,21.13
2022-12-01T18:22:42.081Z,22.65
2022-12-01T18:24:07.912Z,23.73
2022-12-01T18:25:39.776Z,22.63
2022-12-01T18:27:06.012Z,23.02
2022-12-01T18:28:32.900Z,22.85
2022-12-01T18:29:56.434Z,19.55
2022-12-01T18:31:18.262Z,21.98
2022-12-01T18:32:40.591Z,22.45
2022-12-01T18:34:04.054Z,20.42
2022-12-01T18:35:31.552Z,20.10
2022-12-01T18:36:54.104Z,22.13
2022-12-01T18:38:16.224Z,22.50
2022-12-01T18:39:38.593Z,20.67
2022-12-01T18:41:00.784Z,19.52
2022-12-01T18:42:24.162Z,19.70
2022-12-01T18:43:47.898Z,20.83
2022-12-01T18:45:15.413Z,19.85
2022-12-01T18:46:42.116Z,18.60
2022-12-01T18:48:07.865Z,20.75
2022-12-01T18:49:30.513Z,19.60
2022-12-01T18:50:59.052Z,19.05
2022-12-01T18:52:22.622Z,19.67
2022-12-01T18:53:45.870Z,19.15
2022-12-01T18:55:08.562Z,19.30
2022-12-01T18:56:31.797Z,20.90
2022-12-01T18:57:55.256Z,19.20
2022-12-01T18:59:20.530Z,18.42
2022-12-01T19:01:13.153Z,20.55
2022-12-01T19:02:35.640Z,18.27
2022-12-01T19:04:11.514Z,20.52
2022-12-01T19:05:35.208Z,19.75
2022-12-01T19:06:59.511Z,19.52
2022-12-01T19:08:51.832Z,18.63
2022-12-01T19:10:14.159Z,19.63
2022-12-01T19:11:40.774Z,18.58
2022-12-01T19:13:04.533Z,17.33
2022-12-01T19:14:33.016Z,17.88
2022-12-01T19:15:58.056Z,18.65
2022-12-01T19:17:24.792Z,22.52
2022-12-01T19:18:49.494Z,19.60
2022-12-01T19:20:18.392Z,21.88
2022-12-01T19:21:43.084Z,19.52
2022-12-01T19:23:05.224Z,18.38
2022-12-01T19:25:50.099Z,19.77
2022-12-01T19:27:14.532Z,18.52
2022-12-01T19:28:45.596Z,20.88
2022-12-01T19:30:27.309Z,19.58
2022-12-01T19:31:51.626Z,17.73
2022-12-01T19:33:15.924Z,19.60
2022-12-01T19:34:38.299Z,18.63
2022-12-01T19:36:06.153Z,18.60
2022-12-01T19:37:29.406Z,18.42
2022-12-01T19:38:52.266Z,17.42
2022-12-01T19:40:15.738Z,19.52
2022-12-01T19:41:38.705Z,19.60
2022-12-01T19:43:01.085Z,21.65
2022-12-01T19:44:33.214Z,21.98
2022-12-01T19:45:55.264Z,24.10
2022-12-01T19:47:22.457Z,19.25
2022-12-01T19:48:45.068Z,19.83
2022-12-01T19:50:08.431Z,20.98
2022-12-01T19:51:35.231Z,20.67
2022-12-01T19:52:57.298Z,21.63
2022-12-01T19:54:24.983Z,20.48
2022-12-01T19:55:49.494Z,20.90
2022-12-01T19:57:11.756Z,20.80
2022-12-01T19:58:34.727Z,23.20
2022-12-01T19:59:57.031Z,22.20
2022-12-01T20:01:20.617Z,20.95
2022-12-01T20:02:44.764Z,20.15
2022-12-01T20:04:07.691Z,21.20
2022-12-01T20:05:29.883Z,20.92
2022-12-01T20:06:52.349Z,22.50
2022-12-01T20:08:25.748Z,23.17
2022-12-01T20:09:50.106Z,22.40
2022-12-01T20:11:14.698Z,20.90
2022-12-01T20:12:36.966Z,21.50
2022-12-01T20:13:59.257Z,22.17
2022-12-01T20:15:21.239Z,21.67
2022-12-01T20:16:43.646Z,21.48
2022-12-01T20:18:12.862Z,22.63
2022-12-01T20:19:35.384Z,22.25
2022-12-01T20:21:03.441Z,22.05
2022-12-01T20:22:26.063Z,20.98
2022-12-01T20:23:49.729Z,19.88
2022-12-01T20:25:11.738Z,19.70
2022-12-01T20:26:38.193Z,18.25
2022-12-01T20:28:05.047Z,20.08
2022-12-01T20:29:30.454Z,19.15
2022-12-01T20:30:52.780Z,17.52
2022-12-01T20:32:23.228Z,20.55
2022-12-01T20:33:50.741Z,19.35
2022-12-01T20:35:15.830Z,20.13
2022-12-01T20:36:38.892Z,20.00
2022-12-01T20:38:00.865Z,19.90
2022-12-01T20:39:32.561Z,21.02
2022-12-01T20:40:54.583Z,19.52
2022-12-01T20:43:43.785Z,18.63
2022-12-01T20:45:06.868Z,19.00
2022-12-01T20:46:29.392Z,20.55
2022-12-01T20:47:51.193Z,19.40
2022-12-01T20:49:18.753Z,21.38
2022-12-01T20:50:42.892Z,19.67
2022-12-01T20:52:05.233Z,17.95
2022-12-01T20:53:27.439Z,19.85
2022-12-01T20:54:50.056Z,19.27
2022-12-01T20:56:16.515Z,18.23
2022-12-01T20:57:38.468Z,18.75
2022-12-01T20:59:01.539Z,17.05
2022-12-01T21:00:23.804Z,16.33
2022-12-01T21:03:17.064Z,16.40
2022-12-01T21:04:40.765Z,18.08
2022-12-01T21:06:05.644Z,19.88
2022-12-01T21:07:29.164Z,19.33
2022-12-01T21:08:52.441Z,20.33
2022-12-01T21:10:19.964Z,19.90
2022-12-01T21:12:05.151Z,20.50
2022-12-01T21:13:43.329Z,19.95
2022-12-01T21:15:24.260Z,19.98
2022-12-01T21:18:28.329Z,20.65
2022-12-01T21:19:57.888Z,18.20
2022-12-01T21:21:24.906Z,20.42
2022-12-01T21:22:47.737Z,21.35
2022-12-01T21:24:17.100Z,20.42
2022-12-01T21:25:40.277Z,22.55
2022-12-01T21:27:14.995Z,21.52
2022-12-01T21:28:39.877Z,21.92
2022-12-01T21:30:02.675Z,21.05
2022-12-01T21:31:23.946Z,21.00
2022-12-01T21:32:48.401Z,22.85
2022-12-01T21:34:33.166Z,22.55
2022-12-01T21:36:02.457Z,21.63
2022-12-01T21:37:26.370Z,23.67
2022-12-01T21:38:51.772Z,23.10
2022-12-01T21:40:23.186Z,23.90
2022-12-01T21:41:45.977Z,22.43
2022-12-01T21:43:19.622Z,23.15
2022-12-01T21:44:45.080Z,23.33
2022-12-01T21:46:15.072Z,21.92
2022-12-01T21:47:39.741Z,23.83
2022-12-01T21:49:07.527Z,22.25
2022-12-01T21:50:28.844Z,23.20
2022-12-01T21:51:55.477Z,22.67
2022-12-01T21:53:20.354Z,22.48
2022-12-01T21:54:42.545Z,23.08
2022-12-01T21:56:09.088Z,22.67
2022-12-01T21:57:44.299Z,21.70
2022-12-01T21:59:15.218Z,21.08
2022-12-01T22:00:38.160Z,22.15
2022-12-01T22:02:00.302Z,21.70
2022-12-01T22:03:29.795Z,21.95
2022-12-01T22:04:52.109Z,23.42
2022-12-01T22:06:33.469Z,22.67
2022-12-01T22:08:00.800Z,21.48
2022-12-01T22:09:31.646Z,19.80
2022-12-01T22:11:06.097Z,22.27
2022-12-01T22:12:30.268Z,19.65
2022-12-01T22:13:57.834Z,20.77
2022-12-01T22:15:40.807Z,22.48
2022-12-01T22:17:15.973Z,21.70
2022-12-01T22:18:39.787Z,21.13
2022-12-01T22:20:03.847Z,23.55
2022-12-01T22:21:47.894Z,23.48
2022-12-01T22:23:13.109Z,24.23
2022-12-01T22:24:40.515Z,24.52
2022-12-01T22:26:02.887Z,24.63
2022-12-01T22:27:31.009Z,23.38
2022-12-01T22:28:56.517Z,23.38
2022-12-01T22:30:25.792Z,24.88
2022-12-01T22:31:47.510Z,25.38
2022-12-01T22:33:24.089Z,26.13
2022-12-01T22:34:53.754Z,26.05
2022-12-01T22:36:23.480Z,23.92
2022-12-01T22:37:50.062Z,26.92
2022-12-01T22:39:27.753Z,26.70
2022-12-01T22:40:57.257Z,24.30
2022-12-01T22:42:23.975Z,29.65
2022-12-01T22:43:48.076Z,27.42
2022-12-01T22:45:22.894Z,27.42
2022-12-01T22:46:50.575Z,26.27
2022-12-01T22:48:22.190Z,24.65
2022-12-01T22:49:44.354Z,29.02
2022-12-01T22:51:37.679Z,27.15
2022-12-01T22:53:09.454Z,27.38
2022-12-01T22:54:39.099Z,25.83
2022-12-01T22:56:01.899Z,26.10
2022-12-01T22:58:20.297Z,27.98
2022-12-01T22:59:51.664Z,28.05
2022-12-01T23:01:35.348Z,25.92
2022-12-01T23:02:59.161Z,26.38
2022-12-01T23:04:24.316Z,27.50
2022-12-01T23:05:50.091Z,29.33
2022-12-01T23:07:33.467Z,27.45
2022-12-01T23:08:56.610Z,25.85
2022-12-01T23:10:22.268Z,28.70
2022-12-01T23:11:43.800Z,27.20
2022-12-01T23:13:15.250Z,27.90
2022-12-01T23:14:40.304Z,28.55
2022-12-01T23:16:02.629Z,29.02
2022-12-01T23:17:26.298Z,27.33
2022-12-01T23:18:52.130Z,27.17
2022-12-01T23:20:32.481Z,28.42
2022-12-01T23:21:54.389Z,28.00
2022-12-01T23:24:41.352Z,26.95
2022-12-01T23:26:09.702Z,29.52
2022-12-01T23:27:34.460Z,29.02
2022-12-01T23:28:59.054Z,28.50
2022-12-01T23:30:24.228Z,32.50
2022-12-01T23:31:51.371Z,31.13
2022-12-01T23:33:24.874Z,28.13
2022-12-01T23:34:47.404Z,27.95
2022-12-01T23:36:23.213Z,27.48
2022-12-01T23:37:47.023Z,29.63
2022-12-01T23:39:14.337Z,28.10
2022-12-01T23:40:36.610Z,28.75
2022-12-01T23:42:00.835Z,28.88
2022-12-01T23:43:25.235Z,28.20
2022-12-01T23:44:49.888Z,28.65
2022-12-01T23:46:18.627Z,30.98
2022-12-01T23:47:39.712Z,28.90
2022-12-01T23:49:07.304Z,29.23
2022-12-01T23:50:30.692Z,30.58
2022-12-01T23:51:57.329Z,28.10
2022-12-01T23:53:29.490Z,27.92
2022-12-01T23:54:51.783Z,27.63
2022-12-01T23:56:17.810Z,24.70
2022-12-01T23:57:41.350Z,25.60
2022-12-01T23:59:03.282Z,26.50
